Time;durP1;ratioP1;P1;durP2;ratioP2;P2;SDS_P1;SDS_P2;PMS_P1;PMS_P2;Temp;Humidity;BMP_temperature;BMP_pressure;BME280_temperature;BME280_humidity;BME280_pressure;Samples;Min_cycle;Max_cycle;Signal;HPM_P1;HPM_P2
2023/07/31 00:02:07;;;;;;;;;;;16.80;99.90;;;;;;4985528;28;20140;-60
2023/07/31 00:04:34;;;;;;;;;;;16.80;99.90;;;;;;4988003;28;19932;-61
2023/07/31 00:07:04;;;;;;;;;;;16.70;99.90;;;;;;4987601;28;19932;-61
2023/07/31 00:09:30;;;;;;;;;;;16.60;99.90;;;;;;4987867;28;19942;-61
2023/07/31 00:11:57;;;;;;;;;;;16.60;99.90;;;;;;4987090;28;19968;-61
2023/07/31 00:14:24;;;;;;;;;;;16.50;99.90;;;;;;4987736;28;19976;-61
2023/07/31 00:16:51;;;;;;;;;;;16.50;99.90;;;;;;4986997;28;19980;-61
2023/07/31 00:19:18;;;;;;;;;;;16.50;99.90;;;;;;4990514;28;19921;-60
2023/07/31 00:21:44;;;;;;;;;;;16.50;99.90;;;;;;4989884;28;19922;-61
2023/07/31 00:24:11;;;;;;;;;;;16.50;99.90;;;;;;4988697;28;19933;-60
2023/07/31 00:26:38;;;;;;;;;;;16.50;99.90;;;;;;4987683;28;19966;-62
2023/07/31 00:29:05;;;;;;;;;;;16.50;99.90;;;;;;4987027;28;19922;-61
2023/07/31 00:31:32;;;;;;;;;;;16.50;99.90;;;;;;4988944;28;19929;-61
2023/07/31 00:33:58;;;;;;;;;;;16.50;99.90;;;;;;4989197;28;20012;-62
2023/07/31 00:36:25;;;;;;;;;;;16.50;99.90;;;;;;4988690;28;19929;-60
2023/07/31 00:38:52;;;;;;;;;;;16.50;99.90;;;;;;4988199;28;20324;-60
2023/07/31 00:41:18;;;;;;;;;;;16.50;99.90;;;;;;5007581;28;19922;-60
2023/07/31 00:43:45;;;;;;;;;;;16.60;99.90;;;;;;4987730;28;19922;-60
2023/07/31 00:46:12;;;;;;;;;;;16.50;99.90;;;;;;4988639;28;20427;-60
2023/07/31 00:48:39;;;;;;;;;;;16.60;99.90;;;;;;4987431;28;19965;-60
2023/07/31 00:51:06;;;;;;;;;;;16.60;99.90;;;;;;5003982;28;19922;-61
2023/07/31 00:53:33;;;;;;;;;;;16.60;99.90;;;;;;4988281;28;19929;-60
2023/07/31 00:56:00;;;;;;;;;;;16.60;99.90;;;;;;4987442;28;19943;-61
2023/07/31 00:58:26;;;;;;;;;;;16.60;99.90;;;;;;4988765;28;19944;-60
2023/07/31 01:00:53;;;;;;;;;;;16.70;99.90;;;;;;4987989;28;19929;-61
2023/07/31 01:03:20;;;;;;;;;;;16.70;99.90;;;;;;4987448;28;19921;-60
2023/07/31 01:06:06;;;;;;;;;;;16.70;99.90;;;;;;4988224;28;20335;-61
2023/07/31 01:08:52;;;;;;;;;;;16.70;99.90;;;;;;4988323;28;19921;-61
2023/07/31 01:11:24;;;;;;;;;;;16.80;99.90;;;;;;4981257;28;20078;-60
2023/07/31 01:13:51;;;;;;;;;;;16.80;99.90;;;;;;4987766;28;20443;-61
2023/07/31 01:16:17;;;;;;;;;;;16.80;99.90;;;;;;4989323;28;20399;-60
2023/07/31 01:18:44;;;;;;;;;;;16.80;99.90;;;;;;4988999;28;20016;-61
2023/07/31 01:21:14;;;;;;;;;;;16.90;99.90;;;;;;4989388;28;20447;-61
2023/07/31 01:23:50;;;;;;;;;;;16.90;99.90;;;;;;4988631;28;19922;-60
2023/07/31 01:26:21;;;;;;;;;;;16.90;99.90;;;;;;4989637;28;19925;-61
2023/07/31 01:28:50;;;;;;;;;;;16.90;99.90;;;;;;4987983;28;19921;-61
2023/07/31 01:31:22;;;;;;;;;;;17.00;99.90;;;;;;4986524;28;19925;-61
2023/07/31 01:33:49;;;;;;;;;;;17.00;99.90;;;;;;4988981;28;19949;-60
2023/07/31 01:36:16;;;;;;;;;;;17.00;99.90;;;;;;4985682;28;19925;-61
2023/07/31 01:38:43;;;;;;;;;;;17.00;99.90;;;;;;4992704;28;19921;-61
2023/07/31 01:41:09;;;;;;;;;;;17.00;99.90;;;;;;4994039;28;19932;-61
2023/07/31 01:43:36;;;;;;;;;;;17.00;99.90;;;;;;4995019;28;19922;-60
2023/07/31 01:46:03;;;;;;;;;;;17.10;99.90;;;;;;4995004;28;19931;-60
2023/07/31 01:48:35;;;;;;;;;;;17.00;99.90;;;;;;4998385;28;20376;-61
2023/07/31 01:51:02;;;;;;;;;;;17.10;99.90;;;;;;4994908;28;19921;-61
2023/07/31 01:53:31;;;;;;;;;;;17.10;99.90;;;;;;4995960;28;20327;-61
2023/07/31 01:55:58;;;;;;;;;;;17.10;99.90;;;;;;4994482;28;19922;-61
2023/07/31 01:58:25;;;;;;;;;;;17.10;99.90;;;;;;4995855;28;19928;-60
2023/07/31 02:00:52;;;;;;;;;;;17.10;99.90;;;;;;4995538;28;19937;-61
2023/07/31 02:03:18;;;;;;;;;;;17.10;99.90;;;;;;4995413;28;19926;-60
2023/07/31 02:05:46;;;;;;;;;;;17.10;99.90;;;;;;4994838;28;20384;-61
2023/07/31 02:08:12;;;;;;;;;;;17.20;99.90;;;;;;4995948;28;19928;-61
2023/07/31 02:10:39;;;;;;;;;;;17.10;99.90;;;;;;4994972;28;19930;-61
2023/07/31 02:13:06;;;;;;;;;;;17.20;99.90;;;;;;4995513;28;19921;-61
2023/07/31 02:15:33;;;;;;;;;;;17.20;99.90;;;;;;4993487;28;19930;-60
2023/07/31 02:17:59;;;;;;;;;;;17.20;99.90;;;;;;4652069;28;9999918;-61
2023/07/31 02:20:26;;;;;;;;;;;17.20;99.90;;;;;;4992878;28;19925;-60
2023/07/31 02:22:53;;;;;;;;;;;17.20;99.90;;;;;;4995019;28;19921;-60
2023/07/31 02:25:19;;;;;;;;;;;17.20;99.90;;;;;;4995182;28;19925;-60
2023/07/31 02:27:46;;;;;;;;;;;17.30;99.90;;;;;;4995061;28;19922;-61
2023/07/31 02:30:13;;;;;;;;;;;17.30;99.90;;;;;;4995059;28;20396;-59
2023/07/31 02:32:40;;;;;;;;;;;17.30;99.90;;;;;;4991971;28;19933;-61
2023/07/31 02:35:07;;;;;;;;;;;17.30;99.90;;;;;;4995309;28;19953;-60
2023/07/31 02:37:33;;;;;;;;;;;17.30;99.90;;;;;;4994880;28;19922;-60
2023/07/31 02:40:00;;;;;;;;;;;17.30;99.90;;;;;;4993978;28;19922;-60
2023/07/31 02:42:27;;;;;;;;;;;17.40;99.90;;;;;;4994119;28;19925;-60
2023/07/31 02:44:55;;;;;;;;;;;17.40;99.90;;;;;;4995406;28;19922;-60
2023/07/31 02:47:22;;;;;;;;;;;17.40;99.90;;;;;;4994253;28;19992;-60
2023/07/31 02:49:49;;;;;;;;;;;17.40;99.90;;;;;;4993307;28;20310;-60
2023/07/31 02:52:16;;;;;;;;;;;17.40;99.90;;;;;;4991171;28;20000;-60
2023/07/31 02:54:43;;;;;;;;;;;17.40;99.90;;;;;;4992116;28;19922;-60
2023/07/31 02:57:09;;;;;;;;;;;17.40;99.90;;;;;;4991447;28;19926;-61
2023/07/31 02:59:36;;;;;;;;;;;17.40;99.90;;;;;;4981627;28;19976;-61
2023/07/31 03:02:03;;;;;;;;;;;17.40;99.90;;;;;;4991317;28;20422;-61
2023/07/31 03:04:30;;;;;;;;;;;17.40;99.90;;;;;;4991682;28;19921;-61
2023/07/31 03:06:57;;;;;;;;;;;17.40;99.90;;;;;;4991468;28;19998;-61
2023/07/31 03:09:23;;;;;;;;;;;17.40;99.90;;;;;;4991709;28;19993;-61
2023/07/31 03:11:50;;;;;;;;;;;17.50;99.90;;;;;;4993430;28;19976;-61
2023/07/31 03:14:17;;;;;;;;;;;17.50;99.90;;;;;;4989952;28;19977;-62
2023/07/31 03:16:44;;;;;;;;;;;17.50;99.90;;;;;;4991451;28;19979;-61
2023/07/31 03:19:10;;;;;;;;;;;17.50;99.90;;;;;;4990582;28;19928;-61
2023/07/31 03:21:37;;;;;;;;;;;17.50;99.90;;;;;;4991058;28;20373;-61
2023/07/31 03:24:04;;;;;;;;;;;17.60;99.90;;;;;;4990990;28;19991;-61
2023/07/31 03:26:31;;;;;;;;;;;17.50;99.90;;;;;;4991416;28;19987;-61
2023/07/31 03:28:57;;;;;;;;;;;17.60;99.90;;;;;;4990926;28;19969;-61
2023/07/31 03:31:24;;;;;;;;;;;17.60;99.90;;;;;;4991763;28;19983;-61
2023/07/31 03:33:51;;;;;;;;;;;17.60;99.90;;;;;;4990857;28;20308;-61
2023/07/31 03:36:18;;;;;;;;;;;17.60;99.90;;;;;;4991284;28;19929;-61
2023/07/31 03:38:45;;;;;;;;;;;17.60;99.90;;;;;;4990757;28;19925;-60
2023/07/31 03:41:12;;;;;;;;;;;17.70;99.90;;;;;;4991287;28;19921;-60
2023/07/31 03:43:39;;;;;;;;;;;17.70;99.90;;;;;;4990518;28;20368;-61
2023/07/31 03:46:05;;;;;;;;;;;17.70;99.90;;;;;;4991363;28;19928;-61
2023/07/31 03:48:32;;;;;;;;;;;17.70;99.90;;;;;;4990366;28;19922;-61
2023/07/31 03:50:59;;;;;;;;;;;17.70;99.90;;;;;;4991028;28;20027;-61
2023/07/31 03:53:26;;;;;;;;;;;17.70;99.90;;;;;;4990648;28;19976;-61
2023/07/31 03:55:52;;;;;;;;;;;17.80;99.90;;;;;;5005830;28;20587;-61
2023/07/31 03:58:19;;;;;;;;;;;17.80;99.90;;;;;;4990760;28;19925;-61
2023/07/31 04:00:46;;;;;;;;;;;17.70;99.90;;;;;;4990629;28;20057;-61
2023/07/31 04:03:13;;;;;;;;;;;17.70;99.90;;;;;;4988483;28;19921;-61
2023/07/31 04:05:40;;;;;;;;;;;17.80;99.90;;;;;;4988719;28;19921;-61
2023/07/31 04:08:06;;;;;;;;;;;17.80;99.90;;;;;;4990457;28;19921;-61
2023/07/31 04:10:33;;;;;;;;;;;17.80;99.90;;;;;;4990552;28;19921;-61
2023/07/31 04:13:00;;;;;;;;;;;17.80;99.90;;;;;;4990710;28;19929;-61
2023/07/31 04:15:27;;;;;;;;;;;17.90;99.90;;;;;;4989896;28;20352;-61
2023/07/31 04:17:53;;;;;;;;;;;17.90;99.90;;;;;;4990328;28;19926;-61
2023/07/31 04:20:20;;;;;;;;;;;17.90;99.90;;;;;;4991120;28;20062;-61
2023/07/31 04:22:47;;;;;;;;;;;17.90;99.90;;;;;;4990190;28;19922;-60
2023/07/31 04:25:14;;;;;;;;;;;17.90;99.90;;;;;;4990037;28;19945;-61
2023/07/31 04:27:41;;;;;;;;;;;17.90;99.90;;;;;;4990294;28;20269;-61
2023/07/31 04:30:08;;;;;;;;;;;17.90;99.90;;;;;;4989631;28;19926;-64
2023/07/31 04:32:35;;;;;;;;;;;17.90;99.90;;;;;;4990178;28;19922;-61
2023/07/31 04:35:02;;;;;;;;;;;18.00;99.90;;;;;;4989722;28;19980;-61
2023/07/31 04:37:29;;;;;;;;;;;18.00;99.90;;;;;;4990288;28;19926;-62
2023/07/31 04:39:56;;;;;;;;;;;18.00;99.90;;;;;;4989676;28;20015;-60
2023/07/31 04:42:22;;;;;;;;;;;18.00;99.90;;;;;;4990264;28;19944;-63
2023/07/31 04:44:49;;;;;;;;;;;18.00;99.90;;;;;;4989508;28;19930;-61
2023/07/31 04:47:16;;;;;;;;;;;17.90;99.90;;;;;;4989977;28;19921;-60
2023/07/31 04:49:42;;;;;;;;;;;18.00;99.90;;;;;;4992458;28;19976;-61
2023/07/31 04:52:09;;;;;;;;;;;18.00;99.90;;;;;;4989487;28;19928;-61
2023/07/31 04:54:36;;;;;;;;;;;18.00;99.90;;;;;;4989323;28;20007;-60
2023/07/31 04:57:03;;;;;;;;;;;18.00;99.90;;;;;;4989366;28;20332;-61
2023/07/31 04:59:31;;;;;;;;;;;18.00;99.90;;;;;;4989688;28;19926;-61
2023/07/31 05:01:58;;;;;;;;;;;18.00;99.90;;;;;;4989149;28;20353;-61
2023/07/31 05:04:25;;;;;;;;;;;18.10;99.90;;;;;;4989863;28;19921;-60
2023/07/31 05:06:51;;;;;;;;;;;18.10;99.90;;;;;;4989165;28;20288;-60
2023/07/31 05:09:18;;;;;;;;;;;18.10;99.90;;;;;;4989779;28;20000;-61
2023/07/31 05:11:45;;;;;;;;;;;18.00;99.90;;;;;;4989050;28;20004;-61
2023/07/31 05:14:12;;;;;;;;;;;18.10;99.90;;;;;;4989076;28;19921;-61
2023/07/31 05:16:39;;;;;;;;;;;18.10;99.90;;;;;;4989154;28;19922;-61
2023/07/31 05:19:06;;;;;;;;;;;18.10;99.90;;;;;;4989284;28;19928;-61
2023/07/31 05:21:33;;;;;;;;;;;18.10;99.90;;;;;;5003850;28;19928;-61
2023/07/31 05:23:59;;;;;;;;;;;18.10;99.90;;;;;;4989291;28;19922;-61
2023/07/31 05:26:26;;;;;;;;;;;18.10;99.90;;;;;;4989427;28;19929;-61
2023/07/31 05:28:53;;;;;;;;;;;18.20;99.90;;;;;;4988903;28;19922;-61
2023/07/31 05:31:22;;;;;;;;;;;18.20;99.90;;;;;;4988902;28;20029;-61
2023/07/31 05:33:50;;;;;;;;;;;18.20;99.90;;;;;;4988884;28;19921;-61
2023/07/31 05:36:17;;;;;;;;;;;18.20;99.90;;;;;;4989038;28;19929;-62
2023/07/31 05:38:44;;;;;;;;;;;18.20;99.90;;;;;;4987946;28;19929;-60
2023/07/31 05:41:14;;;;;;;;;;;18.30;99.90;;;;;;4988973;28;19992;-61
2023/07/31 05:43:40;;;;;;;;;;;18.30;99.90;;;;;;4988325;28;19925;-61
2023/07/31 05:46:09;;;;;;;;;;;18.30;99.90;;;;;;4989542;28;19926;-61
2023/07/31 05:48:35;;;;;;;;;;;18.40;99.90;;;;;;4988313;28;19922;-60
2023/07/31 05:51:02;;;;;;;;;;;18.40;99.90;;;;;;4654866;28;10000059;-61
2023/07/31 05:53:29;;;;;;;;;;;18.50;99.90;;;;;;4985722;28;20186;-61
2023/07/31 05:55:56;;;;;;;;;;;18.50;99.90;;;;;;4986144;28;19926;-60
2023/07/31 05:58:22;;;;;;;;;;;18.50;99.90;;;;;;4985461;28;19921;-61
2023/07/31 06:00:49;;;;;;;;;;;18.50;99.90;;;;;;4985863;28;20344;-61
2023/07/31 06:03:16;;;;;;;;;;;18.50;99.90;;;;;;4985685;28;19937;-61
2023/07/31 06:05:42;;;;;;;;;;;18.60;99.90;;;;;;4985800;28;19921;-61
2023/07/31 06:08:09;;;;;;;;;;;18.60;99.90;;;;;;4985772;28;19933;-61
2023/07/31 06:10:36;;;;;;;;;;;18.60;99.90;;;;;;4984491;28;20213;-60
2023/07/31 06:13:03;;;;;;;;;;;18.60;99.90;;;;;;4986015;28;19928;-61
2023/07/31 06:15:30;;;;;;;;;;;18.70;99.90;;;;;;4985996;28;19992;-61
2023/07/31 06:17:57;;;;;;;;;;;18.60;99.90;;;;;;4985724;28;21071;-61
2023/07/31 06:20:24;;;;;;;;;;;18.70;99.90;;;;;;4986017;28;19921;-60
2023/07/31 06:22:51;;;;;;;;;;;18.70;99.90;;;;;;4985448;28;19925;-61
2023/07/31 06:25:18;;;;;;;;;;;18.70;99.90;;;;;;4986459;28;19984;-61
2023/07/31 06:27:45;;;;;;;;;;;18.70;99.90;;;;;;4989775;28;19925;-60
2023/07/31 06:30:11;;;;;;;;;;;18.70;99.90;;;;;;4989279;28;20352;-61
2023/07/31 06:32:40;;;;;;;;;;;18.70;99.90;;;;;;4989927;28;19980;-62
2023/07/31 06:35:09;;;;;;;;;;;18.80;99.90;;;;;;4989047;28;19933;-60
2023/07/31 06:37:36;;;;;;;;;;;18.90;99.90;;;;;;4989701;28;19926;-60
2023/07/31 06:40:05;;;;;;;;;;;18.90;99.90;;;;;;4988658;28;20012;-59
2023/07/31 06:42:32;;;;;;;;;;;18.90;99.90;;;;;;4987586;28;19976;-61
2023/07/31 06:44:59;;;;;;;;;;;19.00;99.90;;;;;;4991113;28;19968;-61
2023/07/31 06:47:26;;;;;;;;;;;19.00;99.90;;;;;;4989200;28;19926;-61
2023/07/31 06:49:53;;;;;;;;;;;19.00;99.90;;;;;;4990396;28;19992;-61
2023/07/31 06:52:20;;;;;;;;;;;19.10;99.90;;;;;;4988570;28;20369;-59
2023/07/31 06:54:59;;;;;;;;;;;19.00;99.90;;;;;;4990334;28;19929;-61
2023/07/31 06:57:26;;;;;;;;;;;19.10;99.90;;;;;;4991296;28;20388;-61
2023/07/31 06:59:53;;;;;;;;;;;19.10;99.90;;;;;;4991197;28;19922;-61
2023/07/31 07:02:19;;;;;;;;;;;19.10;99.90;;;;;;4991305;28;19940;-60
2023/07/31 07:04:46;;;;;;;;;;;19.10;99.90;;;;;;4990762;28;19949;-61
2023/07/31 07:07:13;;;;;;;;;;;19.10;99.90;;;;;;4990728;28;19922;-60
2023/07/31 07:09:40;;;;;;;;;;;19.10;99.90;;;;;;4990926;28;19930;-60
2023/07/31 07:12:07;;;;;;;;;;;19.20;99.90;;;;;;4993653;28;20368;-60
2023/07/31 07:14:34;;;;;;;;;;;19.20;99.90;;;;;;5002567;28;20373;-59
2023/07/31 07:17:01;;;;;;;;;;;19.30;99.90;;;;;;4991187;28;19921;-60
2023/07/31 07:19:28;;;;;;;;;;;19.30;99.90;;;;;;4989361;28;19921;-61
2023/07/31 07:21:56;;;;;;;;;;;19.30;99.90;;;;;;4990113;28;19922;-61
2023/07/31 07:24:22;;;;;;;;;;;19.30;99.90;;;;;;4992277;28;19922;-61
2023/07/31 07:26:49;;;;;;;;;;;19.30;99.90;;;;;;4991105;28;20338;-60
2023/07/31 07:29:16;;;;;;;;;;;19.40;99.90;;;;;;4994287;28;19980;-60
2023/07/31 07:31:44;;;;;;;;;;;19.40;99.90;;;;;;4991833;28;19976;-60
2023/07/31 07:34:11;;;;;;;;;;;19.30;99.90;;;;;;4997434;28;20443;-59
2023/07/31 07:36:38;;;;;;;;;;;19.30;99.90;;;;;;4994020;28;20386;-60
2023/07/31 07:39:05;;;;;;;;;;;19.40;99.90;;;;;;4990209;28;19921;-60
2023/07/31 07:41:32;;;;;;;;;;;19.50;99.90;;;;;;4989754;28;19921;-60
2023/07/31 07:43:59;;;;;;;;;;;19.50;99.90;;;;;;4989851;28;19921;-60
2023/07/31 07:46:26;;;;;;;;;;;19.60;99.90;;;;;;4988686;28;20391;-60
2023/07/31 07:48:53;;;;;;;;;;;19.60;99.90;;;;;;4988498;28;20057;-60
2023/07/31 07:51:19;;;;;;;;;;;19.60;99.90;;;;;;4992662;28;19925;-60
2023/07/31 07:53:46;;;;;;;;;;;19.70;99.90;;;;;;4986337;28;20385;-60
2023/07/31 07:56:13;;;;;;;;;;;19.80;99.90;;;;;;4984565;28;19933;-60
2023/07/31 07:58:39;;;;;;;;;;;19.80;99.90;;;;;;4984781;28;19926;-59
2023/07/31 08:01:06;;;;;;;;;;;19.90;99.90;;;;;;4983969;28;19984;-60
2023/07/31 08:03:33;;;;;;;;;;;20.00;99.90;;;;;;4985512;28;19976;-60
2023/07/31 08:06:00;;;;;;;;;;;20.00;99.90;;;;;;4985903;28;20348;-60
2023/07/31 08:08:28;;;;;;;;;;;20.00;99.90;;;;;;4985508;28;20577;-60
2023/07/31 08:10:54;;;;;;;;;;;19.90;99.90;;;;;;4986475;28;19925;-59
2023/07/31 08:13:21;;;;;;;;;;;20.00;99.90;;;;;;4985317;28;19926;-60
2023/07/31 08:15:48;;;;;;;;;;;20.00;99.90;;;;;;4985660;28;19932;-59
2023/07/31 08:18:15;;;;;;;;;;;20.00;99.90;;;;;;4986306;28;19926;-59
2023/07/31 08:20:43;;;;;;;;;;;19.90;99.90;;;;;;4987102;28;19936;-60
2023/07/31 08:23:10;;;;;;;;;;;19.80;99.90;;;;;;4986459;28;19926;-58
2023/07/31 08:25:37;;;;;;;;;;;19.80;99.90;;;;;;4985310;28;19933;-58
2023/07/31 08:28:04;;;;;;;;;;;19.80;99.90;;;;;;4985872;28;19926;-58
2023/07/31 08:30:31;;;;;;;;;;;19.90;99.90;;;;;;4987014;28;19926;-59
2023/07/31 08:32:58;;;;;;;;;;;20.00;99.90;;;;;;4985357;28;19928;-59
2023/07/31 08:35:25;;;;;;;;;;;20.10;99.90;;;;;;4986051;28;19926;-59
2023/07/31 08:37:52;;;;;;;;;;;20.30;99.90;;;;;;4982258;28;19969;-59
2023/07/31 08:40:19;;;;;;;;;;;20.40;99.90;;;;;;4983327;28;19921;-58
2023/07/31 08:42:46;;;;;;;;;;;20.40;99.90;;;;;;4984597;28;19935;-58
2023/07/31 08:45:16;;;;;;;;;;;20.40;99.90;;;;;;4983800;28;19949;-59
2023/07/31 08:47:50;;;;;;;;;;;20.40;99.90;;;;;;4985423;28;20160;-59
2023/07/31 08:50:17;;;;;;;;;;;20.30;99.90;;;;;;4983164;28;20016;-59
2023/07/31 08:52:45;;;;;;;;;;;20.40;99.90;;;;;;4985462;28;19976;-59
2023/07/31 08:55:12;;;;;;;;;;;20.40;99.90;;;;;;4983996;28;20427;-59
2023/07/31 08:57:39;;;;;;;;;;;20.50;99.90;;;;;;4984583;28;19933;-59
2023/07/31 09:00:06;;;;;;;;;;;20.50;99.90;;;;;;4983568;28;19929;-57
2023/07/31 09:02:39;;;;;;;;;;;20.50;99.90;;;;;;4986126;28;19972;-59
2023/07/31 09:05:06;;;;;;;;;;;20.60;99.90;;;;;;4983906;28;19925;-60
2023/07/31 09:07:36;;;;;;;;;;;20.50;99.90;;;;;;4984038;28;19964;-60
2023/07/31 09:10:03;;;;;;;;;;;20.50;99.90;;;;;;4986822;28;20016;-60
2023/07/31 09:12:30;;;;;;;;;;;20.40;99.90;;;;;;4989593;28;20324;-59
2023/07/31 09:14:57;;;;;;;;;;;20.30;99.90;;;;;;4990175;28;19949;-58
2023/07/31 09:17:31;;;;;;;;;;;20.30;99.90;;;;;;4986414;28;19944;-59
2023/07/31 09:20:00;;;;;;;;;;;20.20;99.90;;;;;;4985485;28;19926;-59
2023/07/31 09:22:33;;;;;;;;;;;20.30;99.90;;;;;;4986326;28;19926;-59
2023/07/31 09:25:22;;;;;;;;;;;20.30;99.90;;;;;;4981947;28;19926;-63
2023/07/31 09:27:53;;;;;;;;;;;20.40;99.90;;;;;;4984048;28;20348;-59
2023/07/31 09:30:20;;;;;;;;;;;20.50;99.90;;;;;;4984702;28;19930;-59
2023/07/31 09:32:47;;;;;;;;;;;20.50;99.90;;;;;;4985362;28;19936;-59
2023/07/31 09:35:21;;;;;;;;;;;20.40;99.90;;;;;;4983957;28;20391;-59
2023/07/31 09:37:57;;;;;;;;;;;20.40;99.90;;;;;;4986144;28;20618;-57
2023/07/31 09:40:33;;;;;;;;;;;20.30;99.90;;;;;;4985497;28;19926;-58
2023/07/31 09:43:01;;;;;;;;;;;20.20;99.90;;;;;;4985493;28;19933;-59
2023/07/31 09:45:28;;;;;;;;;;;20.10;99.90;;;;;;4984700;28;19925;-64
2023/07/31 09:48:10;;;;;;;;;;;20.10;99.90;;;;;;4986573;28;19925;-58
2023/07/31 09:50:38;;;;;;;;;;;20.20;99.90;;;;;;4985752;28;19933;-60
2023/07/31 09:53:05;;;;;;;;;;;20.20;99.90;;;;;;4984911;28;19925;-59
2023/07/31 09:55:32;;;;;;;;;;;20.30;99.90;;;;;;4983463;28;19929;-59
2023/07/31 09:57:59;;;;;;;;;;;20.30;99.90;;;;;;4985758;28;19927;-59
2023/07/31 10:00:28;;;;;;;;;;;20.40;99.90;;;;;;4987120;28;20324;-58
2023/07/31 10:02:54;;;;;;;;;;;20.40;99.90;;;;;;4985999;28;20012;-59
2023/07/31 10:05:21;;;;;;;;;;;20.40;99.90;;;;;;4984716;28;19984;-58
2023/07/31 10:07:51;;;;;;;;;;;20.40;99.90;;;;;;4988016;28;20328;-58
2023/07/31 10:10:17;;;;;;;;;;;20.60;99.90;;;;;;4983644;28;20308;-57
2023/07/31 10:12:44;;;;;;;;;;;20.50;99.90;;;;;;5003305;28;19929;-58
2023/07/31 10:15:11;;;;;;;;;;;20.60;99.90;;;;;;4989595;28;19921;-58
2023/07/31 10:17:38;;;;;;;;;;;20.70;99.90;;;;;;4988958;28;19930;-58
2023/07/31 10:20:05;;;;;;;;;;;20.70;99.90;;;;;;4987470;28;20406;-57
2023/07/31 10:22:32;;;;;;;;;;;20.80;99.90;;;;;;4989019;28;19933;-59
2023/07/31 10:24:59;;;;;;;;;;;20.90;99.90;;;;;;4982683;28;20331;-58
2023/07/31 10:27:25;;;;;;;;;;;20.90;99.90;;;;;;4987204;28;19925;-59
2023/07/31 10:29:56;;;;;;;;;;;20.80;99.90;;;;;;4988365;28;19922;-58
2023/07/31 10:32:22;;;;;;;;;;;20.80;99.90;;;;;;4982527;28;19931;-59
2023/07/31 10:34:49;;;;;;;;;;;20.80;99.90;;;;;;4987793;28;19925;-59
2023/07/31 10:37:22;;;;;;;;;;;20.90;99.90;;;;;;4988627;28;19934;-59
2023/07/31 10:39:56;;;;;;;;;;;20.90;99.90;;;;;;4987513;28;19926;-57
2023/07/31 10:42:33;;;;;;;;;;;21.10;99.90;;;;;;4986421;28;19944;-58
2023/07/31 10:45:01;;;;;;;;;;;21.30;99.90;;;;;;4984618;28;19949;-72
2023/07/31 10:47:28;;;;;;;;;;;21.40;99.90;;;;;;4988324;28;20380;-57
2023/07/31 10:50:11;;;;;;;;;;;21.40;99.90;;;;;;4986144;28;19922;-58
2023/07/31 10:52:38;;;;;;;;;;;21.40;99.90;;;;;;4984986;28;19926;-58
2023/07/31 10:55:23;;;;;;;;;;;21.40;99.90;;;;;;4984361;28;19926;-58
2023/07/31 10:57:50;;;;;;;;;;;21.50;99.90;;;;;;4986177;28;19926;-58
2023/07/31 11:00:18;;;;;;;;;;;21.40;99.90;;;;;;4986416;28;20004;-59
2023/07/31 11:03:03;;;;;;;;;;;21.40;99.90;;;;;;4985127;28;19929;-59
2023/07/31 11:05:50;;;;;;;;;;;21.40;99.90;;;;;;5000088;28;19928;-59
2023/07/31 11:08:19;;;;;;;;;;;21.50;99.90;;;;;;4987005;28;19930;-59
2023/07/31 11:10:46;;;;;;;;;;;21.60;99.90;;;;;;4985957;28;19925;-58
2023/07/31 11:13:13;;;;;;;;;;;21.60;99.90;;;;;;4977258;28;19925;-59
2023/07/31 11:15:40;;;;;;;;;;;21.60;99.90;;;;;;4986552;28;20435;-60
2023/07/31 11:18:08;;;;;;;;;;;21.60;99.90;;;;;;4987414;28;19926;-59
2023/07/31 11:20:35;;;;;;;;;;;21.50;99.90;;;;;;4986754;28;19948;-59
2023/07/31 11:23:02;;;;;;;;;;;21.40;99.90;;;;;;4985966;28;20523;-59
2023/07/31 11:25:30;;;;;;;;;;;21.40;99.90;;;;;;4986130;28;20004;-59
2023/07/31 11:27:57;;;;;;;;;;;21.40;99.90;;;;;;4970871;28;20317;-59
2023/07/31 11:30:24;;;;;;;;;;;21.30;99.90;;;;;;4987026;28;19936;-60
2023/07/31 11:32:51;;;;;;;;;;;21.30;99.90;;;;;;4987843;28;19975;-60
2023/07/31 11:35:18;;;;;;;;;;;21.50;99.90;;;;;;4987810;28;19948;-59
2023/07/31 11:37:45;;;;;;;;;;;21.50;99.90;;;;;;4986955;28;19925;-59
2023/07/31 11:40:12;;;;;;;;;;;21.70;99.90;;;;;;4986742;28;19925;-59
2023/07/31 11:42:39;;;;;;;;;;;21.80;99.90;;;;;;4987738;28;19925;-57
2023/07/31 11:45:06;;;;;;;;;;;21.80;99.90;;;;;;4984872;28;19972;-58
2023/07/31 11:47:36;;;;;;;;;;;21.80;99.90;;;;;;4986734;28;19932;-59
2023/07/31 11:50:03;;;;;;;;;;;21.50;99.90;;;;;;4986345;28;20052;-59
2023/07/31 11:52:30;;;;;;;;;;;21.40;99.90;;;;;;4986802;28;20332;-59
2023/07/31 11:54:56;;;;;;;;;;;21.40;99.90;;;;;;4986436;28;20048;-57
2023/07/31 11:57:23;;;;;;;;;;;21.40;99.90;;;;;;4987304;28;19922;-59
2023/07/31 11:59:50;;;;;;;;;;;21.30;99.90;;;;;;4986172;28;19930;-59
2023/07/31 12:02:17;;;;;;;;;;;21.30;99.90;;;;;;4985754;28;19952;-59
2023/07/31 12:04:43;;;;;;;;;;;21.40;99.90;;;;;;4985576;28;19925;-58
2023/07/31 12:07:12;;;;;;;;;;;21.40;99.90;;;;;;4985578;28;19937;-59
2023/07/31 12:09:50;;;;;;;;;;;21.50;99.90;;;;;;4985979;28;20021;-58
2023/07/31 12:12:19;;;;;;;;;;;21.60;99.90;;;;;;4985190;28;19985;-59
2023/07/31 12:14:46;;;;;;;;;;;21.60;99.90;;;;;;4986789;28;19928;-58
2023/07/31 12:17:12;;;;;;;;;;;21.30;99.90;;;;;;4988019;28;19997;-58
2023/07/31 12:19:39;;;;;;;;;;;21.20;99.90;;;;;;4986949;28;19937;-59
2023/07/31 12:22:16;;;;;;;;;;;21.00;99.90;;;;;;4987776;28;19926;-58
2023/07/31 12:24:44;;;;;;;;;;;21.00;99.90;;;;;;4987434;28;20389;-56
2023/07/31 12:27:14;;;;;;;;;;;20.80;99.90;;;;;;4986848;28;19921;-59
2023/07/31 12:29:42;;;;;;;;;;;20.80;99.90;;;;;;4987391;28;20472;-58
2023/07/31 12:32:20;;;;;;;;;;;20.70;99.90;;;;;;4985823;28;19991;-56
2023/07/31 12:34:47;;;;;;;;;;;20.70;99.90;;;;;;4986033;28;19928;-58
2023/07/31 12:37:14;;;;;;;;;;;20.60;99.90;;;;;;4987948;28;19925;-58
2023/07/31 12:39:40;;;;;;;;;;;20.60;99.90;;;;;;4991216;28;19922;-55
2023/07/31 12:42:07;;;;;;;;;;;20.70;99.90;;;;;;4989836;28;19932;-59
2023/07/31 12:44:34;;;;;;;;;;;20.70;99.90;;;;;;4990291;28;20087;-61
2023/07/31 12:47:00;;;;;;;;;;;20.70;99.90;;;;;;4989217;28;19928;-59
2023/07/31 12:49:27;;;;;;;;;;;20.70;99.90;;;;;;4989798;28;19921;-62
2023/07/31 12:51:54;;;;;;;;;;;20.50;99.90;;;;;;4988311;28;19934;-59
2023/07/31 12:54:21;;;;;;;;;;;20.40;99.90;;;;;;4989418;28;19925;-59
2023/07/31 12:56:47;;;;;;;;;;;20.40;99.90;;;;;;4989117;28;20361;-59
2023/07/31 12:59:14;;;;;;;;;;;20.50;99.90;;;;;;4988681;28;19937;-60
2023/07/31 13:01:41;;;;;;;;;;;20.50;99.90;;;;;;4985919;28;19929;-60
2023/07/31 13:04:08;;;;;;;;;;;20.50;99.90;;;;;;4987124;28;19925;-60
2023/07/31 13:06:35;;;;;;;;;;;20.40;99.90;;;;;;4987573;28;20014;-57
2023/07/31 13:09:02;;;;;;;;;;;20.20;99.90;;;;;;4988391;28;19929;-58
2023/07/31 13:11:29;;;;;;;;;;;20.00;99.90;;;;;;4987802;28;19929;-58
2023/07/31 13:13:56;;;;;;;;;;;19.80;99.90;;;;;;4988276;28;19985;-57
2023/07/31 13:16:22;;;;;;;;;;;19.60;99.90;;;;;;4642334;28;10000131;-57
2023/07/31 13:18:51;;;;;;;;;;;19.40;99.90;;;;;;4985997;28;20674;-57
2023/07/31 13:21:18;;;;;;;;;;;19.10;99.90;;;;;;4986139;28;19926;-58
2023/07/31 13:23:45;;;;;;;;;;;18.80;99.90;;;;;;4985347;28;19921;-58
2023/07/31 13:26:11;;;;;;;;;;;18.70;99.90;;;;;;4985018;28;19929;-58
2023/07/31 13:28:38;;;;;;;;;;;18.50;99.90;;;;;;4983073;28;19933;-58
2023/07/31 13:31:05;;;;;;;;;;;18.30;99.90;;;;;;4986095;28;20019;-58
2023/07/31 13:33:32;;;;;;;;;;;18.20;99.90;;;;;;4985190;28;19944;-58
2023/07/31 13:36:03;;;;;;;;;;;18.00;99.90;;;;;;4984869;28;19921;-57
2023/07/31 13:38:31;;;;;;;;;;;17.90;99.90;;;;;;4985015;28;19949;-58
2023/07/31 13:40:58;;;;;;;;;;;17.90;99.90;;;;;;4985897;28;19926;-58
2023/07/31 13:43:25;;;;;;;;;;;17.80;99.90;;;;;;4985035;28;20403;-58
2023/07/31 13:45:52;;;;;;;;;;;17.80;99.90;;;;;;4985320;28;20380;-58
2023/07/31 13:48:18;;;;;;;;;;;17.70;99.90;;;;;;4983156;28;19926;-57
2023/07/31 13:50:45;;;;;;;;;;;17.60;99.90;;;;;;4985447;28;19932;-59
2023/07/31 13:53:12;;;;;;;;;;;17.60;99.90;;;;;;4985179;28;20344;-59
2023/07/31 13:55:39;;;;;;;;;;;17.50;99.90;;;;;;4984922;28;19926;-57
2023/07/31 13:58:06;;;;;;;;;;;17.50;99.90;;;;;;4984193;28;19926;-57
2023/07/31 14:00:32;;;;;;;;;;;17.40;99.90;;;;;;4985339;28;20576;-58
2023/07/31 14:02:59;;;;;;;;;;;17.30;99.90;;;;;;4985052;28;20352;-58
2023/07/31 14:05:26;;;;;;;;;;;17.20;99.90;;;;;;4984870;28;19926;-58
2023/07/31 14:07:53;;;;;;;;;;;17.10;99.90;;;;;;4985194;28;20250;-59
2023/07/31 14:10:19;;;;;;;;;;;17.00;99.90;;;;;;4985075;28;20408;-57
2023/07/31 14:12:46;;;;;;;;;;;17.00;99.90;;;;;;4985015;28;19948;-59
2023/07/31 14:15:13;;;;;;;;;;;16.90;99.90;;;;;;4984494;28;20421;-58
2023/07/31 14:17:40;;;;;;;;;;;16.90;99.90;;;;;;4984546;28;19928;-58
2023/07/31 14:20:07;;;;;;;;;;;16.90;99.90;;;;;;4986631;28;19922;-58